Terminal Aerodrome Forecast
Issued by NWS Midland/Odessa, TX

Current Version | Previous Version | Text Only | Print | Product List | Glossary On
Versions: 1 2 3 4 5 6 7 8 9 10 11 12
000
FTUS44 KMAF 031700
TAFMAF
TAF
KMAF 031726Z 0318/0418 16015G24KT P6SM SCT200
     FM040400 15012KT P6SM BKN120
     FM041500 15015G25KT P6SM OVC050=

USA.gov is the U.S. government's official web portal to all federal, state and local government web resources and services.